sensor_id;sensor_type;location;lat;lon;timestamp;P1;durP1;ratioP1;P2;durP2;ratioP2
68384;SDS011;55336;43.062;25.626;2023-04-06T00:02:09;7.05;;;5.57;;
68384;SDS011;55336;43.062;25.626;2023-04-06T00:04:35;6.50;;;6.00;;
68384;SDS011;55336;43.062;25.626;2023-04-06T00:07:01;6.65;;;5.93;;
68384;SDS011;55336;43.062;25.626;2023-04-06T00:09:27;6.07;;;5.47;;
68384;SDS011;55336;43.062;25.626;2023-04-06T00:11:52;5.55;;;5.18;;
68384;SDS011;55336;43.062;25.626;2023-04-06T00:14:18;5.35;;;4.95;;
68384;SDS011;55336;43.062;25.626;2023-04-06T00:16:45;5.80;;;5.35;;
68384;SDS011;55336;43.062;25.626;2023-04-06T00:19:11;5.80;;;5.40;;
68384;SDS011;55336;43.062;25.626;2023-04-06T00:21:37;6.07;;;5.32;;
68384;SDS011;55336;43.062;25.626;2023-04-06T00:24:02;5.65;;;5.28;;
68384;SDS011;55336;43.062;25.626;2023-04-06T00:26:29;5.35;;;4.95;;
68384;SDS011;55336;43.062;25.626;2023-04-06T00:28:55;6.68;;;5.88;;
68384;SDS011;55336;43.062;25.626;2023-04-06T00:31:20;6.35;;;5.85;;
68384;SDS011;55336;43.062;25.626;2023-04-06T00:33:47;8.10;;;6.50;;
68384;SDS011;55336;43.062;25.626;2023-04-06T00:36:13;6.20;;;5.68;;
68384;SDS011;55336;43.062;25.626;2023-04-06T00:38:39;6.57;;;6.07;;
68384;SDS011;55336;43.062;25.626;2023-04-06T00:41:05;6.00;;;5.60;;
68384;SDS011;55336;43.062;25.626;2023-04-06T00:43:31;7.13;;;6.53;;
68384;SDS011;55336;43.062;25.626;2023-04-06T00:45:57;5.70;;;5.30;;
68384;SDS011;55336;43.062;25.626;2023-04-06T00:48:23;6.82;;;6.32;;
68384;SDS011;55336;43.062;25.626;2023-04-06T00:50:49;6.35;;;5.45;;
68384;SDS011;55336;43.062;25.626;2023-04-06T00:53:15;6.13;;;5.63;;
68384;SDS011;55336;43.062;25.626;2023-04-06T00:55:42;6.45;;;6.03;;
68384;SDS011;55336;43.062;25.626;2023-04-06T00:58:08;6.38;;;5.88;;
68384;SDS011;55336;43.062;25.626;2023-04-06T01:00:34;5.90;;;5.50;;
68384;SDS011;55336;43.062;25.626;2023-04-06T01:03:00;6.30;;;5.75;;
68384;SDS011;55336;43.062;25.626;2023-04-06T01:05:26;5.53;;;5.20;;
68384;SDS011;55336;43.062;25.626;2023-04-06T01:07:52;6.78;;;6.20;;
68384;SDS011;55336;43.062;25.626;2023-04-06T01:10:22;6.03;;;5.63;;
68384;SDS011;55336;43.062;25.626;2023-04-06T01:12:52;6.38;;;5.88;;
68384;SDS011;55336;43.062;25.626;2023-04-06T01:15:18;8.25;;;6.95;;
68384;SDS011;55336;43.062;25.626;2023-04-06T01:17:44;7.57;;;6.80;;
68384;SDS011;55336;43.062;25.626;2023-04-06T01:20:10;7.38;;;6.88;;
68384;SDS011;55336;43.062;25.626;2023-04-06T01:22:36;7.45;;;6.85;;
68384;SDS011;55336;43.062;25.626;2023-04-06T01:25:04;8.85;;;8.13;;
68384;SDS011;55336;43.062;25.626;2023-04-06T01:27:31;9.20;;;8.40;;
68384;SDS011;55336;43.062;25.626;2023-04-06T01:29:57;9.25;;;8.45;;
68384;SDS011;55336;43.062;25.626;2023-04-06T01:32:23;8.63;;;7.85;;
68384;SDS011;55336;43.062;25.626;2023-04-06T01:34:49;9.48;;;8.63;;
68384;SDS011;55336;43.062;25.626;2023-04-06T01:37:15;9.32;;;8.48;;
68384;SDS011;55336;43.062;25.626;2023-04-06T01:39:41;9.73;;;8.88;;
68384;SDS011;55336;43.062;25.626;2023-04-06T01:42:08;12.52;;;10.52;;
68384;SDS011;55336;43.062;25.626;2023-04-06T01:44:34;10.50;;;9.60;;
68384;SDS011;55336;43.062;25.626;2023-04-06T01:47:00;9.48;;;8.68;;
68384;SDS011;55336;43.062;25.626;2023-04-06T01:49:26;8.57;;;7.82;;
68384;SDS011;55336;43.062;25.626;2023-04-06T01:51:52;8.73;;;8.02;;
68384;SDS011;55336;43.062;25.626;2023-04-06T01:54:19;8.45;;;7.60;;
68384;SDS011;55336;43.062;25.626;2023-04-06T01:56:45;7.40;;;6.80;;
68384;SDS011;55336;43.062;25.626;2023-04-06T01:59:11;8.15;;;7.55;;
68384;SDS011;55336;43.062;25.626;2023-04-06T02:01:37;7.25;;;6.65;;
68384;SDS011;55336;43.062;25.626;2023-04-06T02:04:03;7.35;;;6.75;;
68384;SDS011;55336;43.062;25.626;2023-04-06T02:06:28;7.63;;;7.03;;
68384;SDS011;55336;43.062;25.626;2023-04-06T02:08:56;7.18;;;6.65;;
68384;SDS011;55336;43.062;25.626;2023-04-06T02:11:22;7.00;;;6.40;;
68384;SDS011;55336;43.062;25.626;2023-04-06T02:13:47;7.53;;;6.15;;
68384;SDS011;55336;43.062;25.626;2023-04-06T02:16:13;6.88;;;6.28;;
68384;SDS011;55336;43.062;25.626;2023-04-06T02:18:40;6.63;;;6.13;;
68384;SDS011;55336;43.062;25.626;2023-04-06T02:21:06;7.15;;;6.55;;
68384;SDS011;55336;43.062;25.626;2023-04-06T02:23:32;6.75;;;6.25;;
68384;SDS011;55336;43.062;25.626;2023-04-06T02:25:58;6.40;;;5.90;;
68384;SDS011;55336;43.062;25.626;2023-04-06T02:28:24;7.30;;;6.65;;
68384;SDS011;55336;43.062;25.626;2023-04-06T02:30:50;6.90;;;6.35;;
68384;SDS011;55336;43.062;25.626;2023-04-06T02:33:16;7.30;;;6.60;;
68384;SDS011;55336;43.062;25.626;2023-04-06T02:35:43;6.95;;;6.45;;
68384;SDS011;55336;43.062;25.626;2023-04-06T02:38:10;6.97;;;6.38;;
68384;SDS011;55336;43.062;25.626;2023-04-06T02:40:37;7.00;;;6.35;;
68384;SDS011;55336;43.062;25.626;2023-04-06T02:43:02;6.15;;;5.65;;
68384;SDS011;55336;43.062;25.626;2023-04-06T02:45:28;6.13;;;5.72;;
68384;SDS011;55336;43.062;25.626;2023-04-06T02:47:55;6.22;;;5.82;;
68384;SDS011;55336;43.062;25.626;2023-04-06T02:50:21;7.18;;;6.63;;
68384;SDS011;55336;43.062;25.626;2023-04-06T02:52:47;6.57;;;6.07;;
68384;SDS011;55336;43.062;25.626;2023-04-06T02:55:13;7.40;;;6.78;;
68384;SDS011;55336;43.062;25.626;2023-04-06T02:57:39;8.77;;;7.97;;
68384;SDS011;55336;43.062;25.626;2023-04-06T03:00:05;7.47;;;6.78;;
68384;SDS011;55336;43.062;25.626;2023-04-06T03:02:32;7.63;;;6.95;;
68384;SDS011;55336;43.062;25.626;2023-04-06T03:04:58;7.82;;;7.03;;
68384;SDS011;55336;43.062;25.626;2023-04-06T03:07:24;13.15;;;7.43;;
68384;SDS011;55336;43.062;25.626;2023-04-06T03:09:50;7.18;;;6.47;;
68384;SDS011;55336;43.062;25.626;2023-04-06T03:12:16;6.85;;;6.25;;
68384;SDS011;55336;43.062;25.626;2023-04-06T03:14:42;6.70;;;6.10;;
68384;SDS011;55336;43.062;25.626;2023-04-06T03:17:08;8.13;;;6.72;;
68384;SDS011;55336;43.062;25.626;2023-04-06T03:19:34;6.82;;;6.13;;
68384;SDS011;55336;43.062;25.626;2023-04-06T03:22:00;8.30;;;7.57;;
68384;SDS011;55336;43.062;25.626;2023-04-06T03:24:26;6.40;;;5.90;;
68384;SDS011;55336;43.062;25.626;2023-04-06T03:26:52;7.03;;;6.45;;
68384;SDS011;55336;43.062;25.626;2023-04-06T03:29:18;7.22;;;6.63;;
68384;SDS011;55336;43.062;25.626;2023-04-06T03:31:45;8.02;;;7.32;;
68384;SDS011;55336;43.062;25.626;2023-04-06T03:34:10;7.97;;;6.93;;
68384;SDS011;55336;43.062;25.626;2023-04-06T03:36:36;6.72;;;6.20;;
68384;SDS011;55336;43.062;25.626;2023-04-06T03:39:02;6.57;;;5.97;;
68384;SDS011;55336;43.062;25.626;2023-04-06T03:41:28;6.95;;;6.35;;
68384;SDS011;55336;43.062;25.626;2023-04-06T03:43:54;9.80;;;7.45;;
68384;SDS011;55336;43.062;25.626;2023-04-06T03:46:21;7.75;;;7.15;;
68384;SDS011;55336;43.062;25.626;2023-04-06T03:48:48;7.95;;;7.25;;
68384;SDS011;55336;43.062;25.626;2023-04-06T03:51:14;7.55;;;6.95;;
68384;SDS011;55336;43.062;25.626;2023-04-06T03:53:40;8.90;;;8.10;;
68384;SDS011;55336;43.062;25.626;2023-04-06T03:56:06;14.40;;;7.38;;
68384;SDS011;55336;43.062;25.626;2023-04-06T03:58:32;8.68;;;7.82;;
68384;SDS011;55336;43.062;25.626;2023-04-06T04:00:57;8.00;;;7.20;;
68384;SDS011;55336;43.062;25.626;2023-04-06T04:03:23;9.35;;;7.32;;
68384;SDS011;55336;43.062;25.626;2023-04-06T04:05:52;8.50;;;7.75;;
68384;SDS011;55336;43.062;25.626;2023-04-06T04:08:18;7.90;;;7.30;;
68384;SDS011;55336;43.062;25.626;2023-04-06T04:10:45;8.05;;;7.35;;
68384;SDS011;55336;43.062;25.626;2023-04-06T04:13:11;10.20;;;7.63;;
68384;SDS011;55336;43.062;25.626;2023-04-06T04:15:38;7.38;;;6.80;;
68384;SDS011;55336;43.062;25.626;2023-04-06T04:18:04;7.68;;;7.07;;
68384;SDS011;55336;43.062;25.626;2023-04-06T04:20:29;9.30;;;8.40;;
68384;SDS011;55336;43.062;25.626;2023-04-06T04:22:55;9.05;;;7.93;;
68384;SDS011;55336;43.062;25.626;2023-04-06T04:25:22;8.93;;;8.10;;
68384;SDS011;55336;43.062;25.626;2023-04-06T04:27:48;8.23;;;7.43;;
68384;SDS011;55336;43.062;25.626;2023-04-06T04:30:15;9.00;;;8.20;;
68384;SDS011;55336;43.062;25.626;2023-04-06T04:32:41;8.88;;;8.07;;
68384;SDS011;55336;43.062;25.626;2023-04-06T04:35:07;8.35;;;7.50;;
68384;SDS011;55336;43.062;25.626;2023-04-06T04:37:33;8.15;;;7.45;;
68384;SDS011;55336;43.062;25.626;2023-04-06T04:40:00;8.80;;;7.85;;
68384;SDS011;55336;43.062;25.626;2023-04-06T04:42:26;11.68;;;7.72;;
68384;SDS011;55336;43.062;25.626;2023-04-06T04:44:52;8.10;;;7.40;;
68384;SDS011;55336;43.062;25.626;2023-04-06T04:47:18;7.78;;;6.95;;
68384;SDS011;55336;43.062;25.626;2023-04-06T04:49:44;7.25;;;6.75;;
68384;SDS011;55336;43.062;25.626;2023-04-06T04:52:10;6.93;;;6.32;;
68384;SDS011;55336;43.062;25.626;2023-04-06T04:54:36;7.43;;;6.72;;
68384;SDS011;55336;43.062;25.626;2023-04-06T04:57:02;7.75;;;6.60;;
68384;SDS011;55336;43.062;25.626;2023-04-06T04:59:28;8.50;;;7.68;;
68384;SDS011;55336;43.062;25.626;2023-04-06T05:01:55;9.00;;;8.15;;
68384;SDS011;55336;43.062;25.626;2023-04-06T05:04:21;9.70;;;6.68;;
68384;SDS011;55336;43.062;25.626;2023-04-06T05:06:48;8.38;;;7.53;;
68384;SDS011;55336;43.062;25.626;2023-04-06T05:09:14;6.93;;;6.43;;
68384;SDS011;55336;43.062;25.626;2023-04-06T05:11:40;7.85;;;7.15;;
68384;SDS011;55336;43.062;25.626;2023-04-06T05:14:06;7.00;;;6.38;;
68384;SDS011;55336;43.062;25.626;2023-04-06T05:16:33;8.10;;;7.10;;
68384;SDS011;55336;43.062;25.626;2023-04-06T05:18:59;7.63;;;6.82;;
68384;SDS011;55336;43.062;25.626;2023-04-06T05:21:25;7.55;;;6.80;;
68384;SDS011;55336;43.062;25.626;2023-04-06T05:23:53;6.65;;;6.15;;
68384;SDS011;55336;43.062;25.626;2023-04-06T05:26:19;13.93;;;7.82;;
68384;SDS011;55336;43.062;25.626;2023-04-06T05:28:45;8.18;;;7.38;;
68384;SDS011;55336;43.062;25.626;2023-04-06T05:31:11;7.90;;;7.22;;
68384;SDS011;55336;43.062;25.626;2023-04-06T05:33:37;8.38;;;7.65;;
68384;SDS011;55336;43.062;25.626;2023-04-06T05:38:30;9.50;;;8.57;;
68384;SDS011;55336;43.062;25.626;2023-04-06T05:40:56;9.10;;;8.10;;
68384;SDS011;55336;43.062;25.626;2023-04-06T05:45:47;8.55;;;7.55;;
68384;SDS011;55336;43.062;25.626;2023-04-06T05:48:13;7.60;;;6.90;;
68384;SDS011;55336;43.062;25.626;2023-04-06T05:50:39;9.07;;;7.55;;
68384;SDS011;55336;43.062;25.626;2023-04-06T05:55:30;10.32;;;8.05;;
68384;SDS011;55336;43.062;25.626;2023-04-06T05:57:56;8.25;;;7.45;;
68384;SDS011;55336;43.062;25.626;2023-04-06T06:00:22;7.35;;;6.65;;
68384;SDS011;55336;43.062;25.626;2023-04-06T06:02:51;8.32;;;7.45;;
68384;SDS011;55336;43.062;25.626;2023-04-06T06:05:17;6.63;;;6.13;;
68384;SDS011;55336;43.062;25.626;2023-04-06T06:07:43;8.00;;;7.20;;
68384;SDS011;55336;43.062;25.626;2023-04-06T06:10:09;6.90;;;6.32;;
68384;SDS011;55336;43.062;25.626;2023-04-06T06:12:35;7.82;;;7.13;;
68384;SDS011;55336;43.062;25.626;2023-04-06T06:15:01;10.23;;;8.55;;
68384;SDS011;55336;43.062;25.626;2023-04-06T06:19:52;7.68;;;6.97;;
68384;SDS011;55336;43.062;25.626;2023-04-06T06:22:19;7.32;;;6.75;;
68384;SDS011;55336;43.062;25.626;2023-04-06T06:27:11;7.75;;;6.97;;
68384;SDS011;55336;43.062;25.626;2023-04-06T06:29:37;9.23;;;8.35;;
68384;SDS011;55336;43.062;25.626;2023-04-06T06:32:02;9.55;;;8.65;;
68384;SDS011;55336;43.062;25.626;2023-04-06T06:34:28;12.68;;;7.97;;
68384;SDS011;55336;43.062;25.626;2023-04-06T06:36:54;7.45;;;6.82;;
68384;SDS011;55336;43.062;25.626;2023-04-06T06:41:46;8.38;;;7.68;;
68384;SDS011;55336;43.062;25.626;2023-04-06T06:44:12;11.80;;;8.40;;
68384;SDS011;55336;43.062;25.626;2023-04-06T06:46:38;8.43;;;7.53;;
68384;SDS011;55336;43.062;25.626;2023-04-06T06:49:03;10.18;;;8.27;;
68384;SDS011;55336;43.062;25.626;2023-04-06T06:51:29;13.27;;;9.63;;
68384;SDS011;55336;43.062;25.626;2023-04-06T06:53:55;8.80;;;7.30;;
68384;SDS011;55336;43.062;25.626;2023-04-06T06:58:48;8.35;;;7.43;;
68384;SDS011;55336;43.062;25.626;2023-04-06T07:01:13;12.45;;;7.80;;
68384;SDS011;55336;43.062;25.626;2023-04-06T07:03:40;7.18;;;6.47;;
68384;SDS011;55336;43.062;25.626;2023-04-06T07:08:31;7.65;;;6.95;;
68384;SDS011;55336;43.062;25.626;2023-04-06T07:13:23;7.30;;;6.60;;
68384;SDS011;55336;43.062;25.626;2023-04-06T07:15:50;15.23;;;7.55;;
68384;SDS011;55336;43.062;25.626;2023-04-06T07:18:16;9.15;;;6.95;;
68384;SDS011;55336;43.062;25.626;2023-04-06T07:20:42;10.80;;;8.90;;
68384;SDS011;55336;43.062;25.626;2023-04-06T07:25:34;8.30;;;7.45;;
68384;SDS011;55336;43.062;25.626;2023-04-06T07:28:00;8.82;;;8.02;;
68384;SDS011;55336;43.062;25.626;2023-04-06T07:30:27;6.07;;;5.47;;
68384;SDS011;55336;43.062;25.626;2023-04-06T07:32:54;7.45;;;6.80;;
68384;SDS011;55336;43.062;25.626;2023-04-06T07:35:24;10.10;;;9.00;;
68384;SDS011;55336;43.062;25.626;2023-04-06T07:37:51;9.75;;;7.30;;
68384;SDS011;55336;43.062;25.626;2023-04-06T07:40:20;6.75;;;5.85;;
68384;SDS011;55336;43.062;25.626;2023-04-06T07:45:12;8.85;;;7.97;;
68384;SDS011;55336;43.062;25.626;2023-04-06T07:47:39;7.45;;;6.65;;
68384;SDS011;55336;43.062;25.626;2023-04-06T07:52:30;7.57;;;6.60;;
68384;SDS011;55336;43.062;25.626;2023-04-06T07:54:57;6.70;;;6.05;;
68384;SDS011;55336;43.062;25.626;2023-04-06T07:57:23;7.63;;;5.47;;
68384;SDS011;55336;43.062;25.626;2023-04-06T07:59:50;7.30;;;6.40;;
68384;SDS011;55336;43.062;25.626;2023-04-06T08:04:41;9.63;;;6.70;;
68384;SDS011;55336;43.062;25.626;2023-04-06T08:07:07;6.57;;;5.95;;
68384;SDS011;55336;43.062;25.626;2023-04-06T08:09:34;12.50;;;7.13;;
68384;SDS011;55336;43.062;25.626;2023-04-06T08:14:25;6.38;;;5.60;;
68384;SDS011;55336;43.062;25.626;2023-04-06T08:19:17;7.00;;;5.75;;
68384;SDS011;55336;43.062;25.626;2023-04-06T08:21:44;6.72;;;6.05;;
68384;SDS011;55336;43.062;25.626;2023-04-06T08:24:11;8.07;;;6.60;;
68384;SDS011;55336;43.062;25.626;2023-04-06T08:26:37;8.38;;;7.07;;
68384;SDS011;55336;43.062;25.626;2023-04-06T08:31:29;7.80;;;7.13;;
68384;SDS011;55336;43.062;25.626;2023-04-06T08:33:55;8.80;;;6.38;;
68384;SDS011;55336;43.062;25.626;2023-04-06T08:38:48;10.13;;;7.10;;
68384;SDS011;55336;43.062;25.626;2023-04-06T08:41:15;7.72;;;6.75;;
68384;SDS011;55336;43.062;25.626;2023-04-06T08:43:43;10.02;;;7.97;;
68384;SDS011;55336;43.062;25.626;2023-04-06T08:46:13;12.13;;;8.20;;
68384;SDS011;55336;43.062;25.626;2023-04-06T08:48:40;8.57;;;7.32;;
68384;SDS011;55336;43.062;25.626;2023-04-06T08:51:11;7.10;;;6.40;;
68384;SDS011;55336;43.062;25.626;2023-04-06T08:53:38;12.18;;;6.85;;
68384;SDS011;55336;43.062;25.626;2023-04-06T08:56:04;8.63;;;6.22;;
68384;SDS011;55336;43.062;25.626;2023-04-06T08:58:32;6.15;;;5.65;;
68384;SDS011;55336;43.062;25.626;2023-04-06T09:01:06;7.05;;;6.10;;
68384;SDS011;55336;43.062;25.626;2023-04-06T09:03:37;6.43;;;5.80;;
68384;SDS011;55336;43.062;25.626;2023-04-06T09:06:04;6.18;;;5.63;;
68384;SDS011;55336;43.062;25.626;2023-04-06T09:08:32;11.65;;;6.40;;
68384;SDS011;55336;43.062;25.626;2023-04-06T09:11:03;6.60;;;5.88;;
68384;SDS011;55336;43.062;25.626;2023-04-06T09:13:30;12.98;;;6.00;;
68384;SDS011;55336;43.062;25.626;2023-04-06T09:16:00;9.82;;;5.78;;
68384;SDS011;55336;43.062;25.626;2023-04-06T09:18:30;6.18;;;5.53;;
68384;SDS011;55336;43.062;25.626;2023-04-06T09:21:00;9.70;;;7.13;;
68384;SDS011;55336;43.062;25.626;2023-04-06T09:23:28;7.13;;;6.45;;
68384;SDS011;55336;43.062;25.626;2023-04-06T09:31:16;9.35;;;7.45;;
68384;SDS011;55336;43.062;25.626;2023-04-06T09:33:50;7.53;;;5.65;;
68384;SDS011;55336;43.062;25.626;2023-04-06T09:36:17;7.57;;;6.88;;
68384;SDS011;55336;43.062;25.626;2023-04-06T09:38:57;7.10;;;6.40;;
68384;SDS011;55336;43.062;25.626;2023-04-06T09:41:28;7.35;;;6.45;;
68384;SDS011;55336;43.062;25.626;2023-04-06T09:44:04;6.63;;;5.57;;
68384;SDS011;55336;43.062;25.626;2023-04-06T09:46:40;7.10;;;5.13;;
68384;SDS011;55336;43.062;25.626;2023-04-06T09:49:11;5.35;;;4.90;;
68384;SDS011;55336;43.062;25.626;2023-04-06T09:51:47;6.95;;;5.90;;
68384;SDS011;55336;43.062;25.626;2023-04-06T09:54:30;4.72;;;4.38;;
68384;SDS011;55336;43.062;25.626;2023-04-06T09:59:43;7.55;;;5.72;;
68384;SDS011;55336;43.062;25.626;2023-04-06T10:07:34;4.70;;;4.30;;
68384;SDS011;55336;43.062;25.626;2023-04-06T10:10:02;6.13;;;4.95;;
68384;SDS011;55336;43.062;25.626;2023-04-06T10:12:28;4.75;;;4.35;;
68384;SDS011;55336;43.062;25.626;2023-04-06T10:14:55;4.47;;;4.10;;
68384;SDS011;55336;43.062;25.626;2023-04-06T10:17:21;5.05;;;4.25;;
68384;SDS011;55336;43.062;25.626;2023-04-06T10:19:51;5.78;;;5.28;;
68384;SDS011;55336;43.062;25.626;2023-04-06T10:22:34;4.97;;;4.63;;
68384;SDS011;55336;43.062;25.626;2023-04-06T10:25:09;4.35;;;3.75;;
68384;SDS011;55336;43.062;25.626;2023-04-06T10:30:01;4.93;;;4.53;;
68384;SDS011;55336;43.062;25.626;2023-04-06T10:32:35;4.90;;;4.30;;
68384;SDS011;55336;43.062;25.626;2023-04-06T10:35:06;5.82;;;4.80;;
68384;SDS011;55336;43.062;25.626;2023-04-06T10:37:52;3.95;;;3.65;;
68384;SDS011;55336;43.062;25.626;2023-04-06T10:40:25;3.92;;;3.55;;
68384;SDS011;55336;43.062;25.626;2023-04-06T10:42:55;4.18;;;3.80;;
68384;SDS011;55336;43.062;25.626;2023-04-06T10:45:32;4.38;;;4.00;;
68384;SDS011;55336;43.062;25.626;2023-04-06T10:47:58;4.97;;;4.57;;
68384;SDS011;55336;43.062;25.626;2023-04-06T10:52:59;5.03;;;4.53;;
68384;SDS011;55336;43.062;25.626;2023-04-06T10:55:27;3.90;;;3.60;;
68384;SDS011;55336;43.062;25.626;2023-04-06T10:57:53;8.43;;;4.95;;
68384;SDS011;55336;43.062;25.626;2023-04-06T11:02:45;5.63;;;4.95;;
68384;SDS011;55336;43.062;25.626;2023-04-06T11:05:12;5.18;;;4.15;;
68384;SDS011;55336;43.062;25.626;2023-04-06T11:07:41;4.53;;;4.15;;
68384;SDS011;55336;43.062;25.626;2023-04-06T11:12:33;4.93;;;4.53;;
68384;SDS011;55336;43.062;25.626;2023-04-06T11:17:30;5.78;;;5.25;;
68384;SDS011;55336;43.062;25.626;2023-04-06T11:19:57;4.88;;;4.47;;
68384;SDS011;55336;43.062;25.626;2023-04-06T11:22:23;4.75;;;4.35;;
68384;SDS011;55336;43.062;25.626;2023-04-06T11:24:50;4.95;;;4.15;;
68384;SDS011;55336;43.062;25.626;2023-04-06T11:27:16;3.70;;;3.30;;
68384;SDS011;55336;43.062;25.626;2023-04-06T11:29:43;5.40;;;3.55;;
68384;SDS011;55336;43.062;25.626;2023-04-06T11:32:11;4.43;;;4.03;;
68384;SDS011;55336;43.062;25.626;2023-04-06T11:34:44;4.32;;;3.75;;
68384;SDS011;55336;43.062;25.626;2023-04-06T11:37:12;3.58;;;3.35;;
68384;SDS011;55336;43.062;25.626;2023-04-06T11:39:51;3.90;;;3.60;;
68384;SDS011;55336;43.062;25.626;2023-04-06T11:42:22;4.93;;;4.22;;
68384;SDS011;55336;43.062;25.626;2023-04-06T11:44:57;3.70;;;3.40;;
68384;SDS011;55336;43.062;25.626;2023-04-06T11:47:31;4.80;;;4.15;;
68384;SDS011;55336;43.062;25.626;2023-04-06T11:50:11;5.47;;;3.67;;
68384;SDS011;55336;43.062;25.626;2023-04-06T11:52:38;5.13;;;3.92;;
68384;SDS011;55336;43.062;25.626;2023-04-06T11:55:15;3.75;;;3.38;;
68384;SDS011;55336;43.062;25.626;2023-04-06T11:57:42;4.10;;;3.78;;
68384;SDS011;55336;43.062;25.626;2023-04-06T12:00:09;4.63;;;4.22;;
68384;SDS011;55336;43.062;25.626;2023-04-06T12:02:36;4.47;;;4.07;;
68384;SDS011;55336;43.062;25.626;2023-04-06T12:05:03;3.20;;;2.92;;
68384;SDS011;55336;43.062;25.626;2023-04-06T12:07:31;5.22;;;3.30;;
68384;SDS011;55336;43.062;25.626;2023-04-06T12:09:58;3.58;;;3.25;;
68384;SDS011;55336;43.062;25.626;2023-04-06T12:12:24;7.65;;;4.00;;
68384;SDS011;55336;43.062;25.626;2023-04-06T12:14:50;4.03;;;3.35;;
68384;SDS011;55336;43.062;25.626;2023-04-06T12:19:43;4.57;;;3.40;;
68384;SDS011;55336;43.062;25.626;2023-04-06T12:24:34;4.15;;;3.75;;
68384;SDS011;55336;43.062;25.626;2023-04-06T12:29:26;4.15;;;3.70;;
68384;SDS011;55336;43.062;25.626;2023-04-06T12:34:18;3.35;;;3.05;;
68384;SDS011;55336;43.062;25.626;2023-04-06T12:39:09;4.30;;;3.88;;
68384;SDS011;55336;43.062;25.626;2023-04-06T12:41:36;9.48;;;4.07;;
68384;SDS011;55336;43.062;25.626;2023-04-06T12:46:28;3.75;;;3.25;;
68384;SDS011;55336;43.062;25.626;2023-04-06T12:48:57;3.83;;;3.35;;
68384;SDS011;55336;43.062;25.626;2023-04-06T12:51:24;4.18;;;3.83;;
68384;SDS011;55336;43.062;25.626;2023-04-06T12:53:53;3.72;;;3.42;;
68384;SDS011;55336;43.062;25.626;2023-04-06T12:58:46;6.35;;;3.90;;
68384;SDS011;55336;43.062;25.626;2023-04-06T13:01:12;3.10;;;2.90;;
68384;SDS011;55336;43.062;25.626;2023-04-06T13:03:39;4.03;;;3.67;;
68384;SDS011;55336;43.062;25.626;2023-04-06T13:06:07;10.00;;;4.82;;
68384;SDS011;55336;43.062;25.626;2023-04-06T13:08:33;7.35;;;3.80;;
68384;SDS011;55336;43.062;25.626;2023-04-06T13:11:02;3.72;;;3.42;;
68384;SDS011;55336;43.062;25.626;2023-04-06T13:13:28;6.10;;;4.05;;
68384;SDS011;55336;43.062;25.626;2023-04-06T13:15:58;3.95;;;3.65;;
68384;SDS011;55336;43.062;25.626;2023-04-06T13:18:30;4.07;;;3.50;;
68384;SDS011;55336;43.062;25.626;2023-04-06T13:20:57;4.65;;;3.65;;
68384;SDS011;55336;43.062;25.626;2023-04-06T13:23:30;3.35;;;3.05;;
68384;SDS011;55336;43.062;25.626;2023-04-06T13:26:04;3.97;;;3.22;;
68384;SDS011;55336;43.062;25.626;2023-04-06T13:28:31;3.50;;;2.55;;
68384;SDS011;55336;43.062;25.626;2023-04-06T13:30:58;7.88;;;2.60;;
68384;SDS011;55336;43.062;25.626;2023-04-06T13:33:26;2.60;;;2.40;;
68384;SDS011;55336;43.062;25.626;2023-04-06T13:35:52;3.83;;;2.30;;
68384;SDS011;55336;43.062;25.626;2023-04-06T13:40:44;3.28;;;2.72;;
68384;SDS011;55336;43.062;25.626;2023-04-06T13:43:10;3.80;;;2.83;;
68384;SDS011;55336;43.062;25.626;2023-04-06T13:45:36;3.75;;;2.58;;
68384;SDS011;55336;43.062;25.626;2023-04-06T13:48:03;4.97;;;2.70;;
68384;SDS011;55336;43.062;25.626;2023-04-06T13:50:30;3.60;;;2.78;;
68384;SDS011;55336;43.062;25.626;2023-04-06T13:55:22;2.65;;;2.45;;
68384;SDS011;55336;43.062;25.626;2023-04-06T13:57:51;2.97;;;2.60;;
68384;SDS011;55336;43.062;25.626;2023-04-06T14:02:42;2.22;;;2.08;;
68384;SDS011;55336;43.062;25.626;2023-04-06T14:05:09;4.57;;;3.30;;
68384;SDS011;55336;43.062;25.626;2023-04-06T14:07:35;3.20;;;2.90;;
68384;SDS011;55336;43.062;25.626;2023-04-06T14:10:02;4.10;;;3.70;;
68384;SDS011;55336;43.062;25.626;2023-04-06T14:12:28;6.07;;;3.78;;
68384;SDS011;55336;43.062;25.626;2023-04-06T14:14:56;4.03;;;3.30;;
68384;SDS011;55336;43.062;25.626;2023-04-06T14:19:48;3.13;;;2.83;;
68384;SDS011;55336;43.062;25.626;2023-04-06T14:24:40;4.68;;;3.03;;
68384;SDS011;55336;43.062;25.626;2023-04-06T14:29:31;4.45;;;2.83;;
68384;SDS011;55336;43.062;25.626;2023-04-06T14:34:25;4.30;;;3.35;;
68384;SDS011;55336;43.062;25.626;2023-04-06T14:36:52;4.15;;;3.30;;
68384;SDS011;55336;43.062;25.626;2023-04-06T14:41:43;4.40;;;3.83;;
68384;SDS011;55336;43.062;25.626;2023-04-06T14:44:10;3.58;;;3.28;;
68384;SDS011;55336;43.062;25.626;2023-04-06T14:46:37;3.40;;;3.10;;
68384;SDS011;55336;43.062;25.626;2023-04-06T14:51:29;4.93;;;4.47;;
68384;SDS011;55336;43.062;25.626;2023-04-06T14:53:55;4.07;;;3.78;;
68384;SDS011;55336;43.062;25.626;2023-04-06T14:56:22;6.65;;;4.70;;
68384;SDS011;55336;43.062;25.626;2023-04-06T14:58:52;4.40;;;4.00;;
68384;SDS011;55336;43.062;25.626;2023-04-06T15:01:18;4.20;;;3.80;;
68384;SDS011;55336;43.062;25.626;2023-04-06T15:03:45;4.22;;;3.88;;
68384;SDS011;55336;43.062;25.626;2023-04-06T15:06:12;6.95;;;3.83;;
68384;SDS011;55336;43.062;25.626;2023-04-06T15:08:42;4.03;;;3.63;;
68384;SDS011;55336;43.062;25.626;2023-04-06T15:11:09;5.90;;;4.13;;
68384;SDS011;55336;43.062;25.626;2023-04-06T15:13:35;4.90;;;4.20;;
68384;SDS011;55336;43.062;25.626;2023-04-06T15:16:01;4.15;;;3.85;;
68384;SDS011;55336;43.062;25.626;2023-04-06T15:18:28;8.38;;;4.20;;
68384;SDS011;55336;43.062;25.626;2023-04-06T15:23:20;6.32;;;3.55;;
68384;SDS011;55336;43.062;25.626;2023-04-06T15:28:12;3.65;;;3.35;;
68384;SDS011;55336;43.062;25.626;2023-04-06T15:30:38;5.15;;;4.70;;
68384;SDS011;55336;43.062;25.626;2023-04-06T15:35:31;4.18;;;3.58;;
68384;SDS011;55336;43.062;25.626;2023-04-06T15:37:59;4.60;;;3.83;;
68384;SDS011;55336;43.062;25.626;2023-04-06T15:40:26;4.82;;;3.95;;
68384;SDS011;55336;43.062;25.626;2023-04-06T15:45:17;4.55;;;4.07;;
68384;SDS011;55336;43.062;25.626;2023-04-06T15:50:10;3.67;;;3.22;;
68384;SDS011;55336;43.062;25.626;2023-04-06T15:52:37;3.63;;;3.33;;
68384;SDS011;55336;43.062;25.626;2023-04-06T15:55:04;4.28;;;3.88;;
68384;SDS011;55336;43.062;25.626;2023-04-06T15:57:31;5.18;;;4.15;;
68384;SDS011;55336;43.062;25.626;2023-04-06T15:59:58;4.88;;;4.18;;
68384;SDS011;55336;43.062;25.626;2023-04-06T16:02:24;5.55;;;4.95;;
68384;SDS011;55336;43.062;25.626;2023-04-06T16:04:54;4.93;;;4.53;;
68384;SDS011;55336;43.062;25.626;2023-04-06T16:07:20;7.88;;;5.15;;
68384;SDS011;55336;43.062;25.626;2023-04-06T16:09:47;5.90;;;5.30;;
68384;SDS011;55336;43.062;25.626;2023-04-06T16:14:39;4.88;;;4.47;;
68384;SDS011;55336;43.062;25.626;2023-04-06T16:17:06;4.40;;;4.00;;
68384;SDS011;55336;43.062;25.626;2023-04-06T16:21:58;4.70;;;4.22;;
68384;SDS011;55336;43.062;25.626;2023-04-06T16:24:25;6.05;;;4.03;;
68384;SDS011;55336;43.062;25.626;2023-04-06T16:29:17;5.00;;;4.25;;
68384;SDS011;55336;43.062;25.626;2023-04-06T16:34:11;4.35;;;3.88;;
68384;SDS011;55336;43.062;25.626;2023-04-06T16:36:38;8.02;;;5.25;;
68384;SDS011;55336;43.062;25.626;2023-04-06T16:39:07;4.97;;;4.50;;
68384;SDS011;55336;43.062;25.626;2023-04-06T16:41:34;6.13;;;4.68;;